sensor_id;sensor_type;location;lat;lon;timestamp;temperature;humidity
23079;DHT22;11707;50.830;4.364;2023-04-27T00:00:46;7.80;99.90
23079;DHT22;11707;50.830;4.364;2023-04-27T00:03:11;7.70;99.90
23079;DHT22;11707;50.830;4.364;2023-04-27T00:05:38;7.60;99.90
23079;DHT22;11707;50.830;4.364;2023-04-27T00:08:04;7.60;1.00
23079;DHT22;11707;50.830;4.364;2023-04-27T00:10:36;7.60;99.90
23079;DHT22;11707;50.830;4.364;2023-04-27T00:13:02;7.60;1.00
23079;DHT22;11707;50.830;4.364;2023-04-27T00:15:28;7.50;1.00
23079;DHT22;11707;50.830;4.364;2023-04-27T00:17:56;7.40;1.00
23079;DHT22;11707;50.830;4.364;2023-04-27T00:20:21;7.60;1.00
23079;DHT22;11707;50.830;4.364;2023-04-27T00:22:48;7.60;99.90
23079;DHT22;11707;50.830;4.364;2023-04-27T00:25:14;7.50;1.00
23079;DHT22;11707;50.830;4.364;2023-04-27T00:27:39;7.40;1.00
23079;DHT22;11707;50.830;4.364;2023-04-27T00:30:06;7.50;99.90
23079;DHT22;11707;50.830;4.364;2023-04-27T00:32:32;7.50;1.00
23079;DHT22;11707;50.830;4.364;2023-04-27T00:34:58;7.70;99.90
23079;DHT22;11707;50.830;4.364;2023-04-27T00:37:23;7.60;99.90
23079;DHT22;11707;50.830;4.364;2023-04-27T00:39:49;7.60;99.90
23079;DHT22;11707;50.830;4.364;2023-04-27T00:42:15;7.60;99.90
23079;DHT22;11707;50.830;4.364;2023-04-27T00:44:47;7.50;99.90
23079;DHT22;11707;50.830;4.364;2023-04-27T00:47:15;7.40;1.00
23079;DHT22;11707;50.830;4.364;2023-04-27T00:49:42;7.40;1.00
23079;DHT22;11707;50.830;4.364;2023-04-27T00:52:11;7.40;1.00
23079;DHT22;11707;50.830;4.364;2023-04-27T00:54:37;7.40;1.00
23079;DHT22;11707;50.830;4.364;2023-04-27T00:57:02;7.30;1.00
23079;DHT22;11707;50.830;4.364;2023-04-27T00:59:31;7.20;1.00
23079;DHT22;11707;50.830;4.364;2023-04-27T01:01:57;7.10;1.00
23079;DHT22;11707;50.830;4.364;2023-04-27T01:04:22;7.30;1.00
23079;DHT22;11707;50.830;4.364;2023-04-27T01:06:51;7.40;1.00
23079;DHT22;11707;50.830;4.364;2023-04-27T01:09:17;7.40;1.00
23079;DHT22;11707;50.830;4.364;2023-04-27T01:11:45;7.20;1.00
23079;DHT22;11707;50.830;4.364;2023-04-27T01:14:13;7.30;1.00
23079;DHT22;11707;50.830;4.364;2023-04-27T01:16:39;7.20;1.00
23079;DHT22;11707;50.830;4.364;2023-04-27T01:19:06;7.30;1.00
23079;DHT22;11707;50.830;4.364;2023-04-27T01:21:35;7.10;1.00
23079;DHT22;11707;50.830;4.364;2023-04-27T01:24:00;7.00;1.00
23079;DHT22;11707;50.830;4.364;2023-04-27T01:26:26;7.00;1.00
23079;DHT22;11707;50.830;4.364;2023-04-27T01:28:52;7.00;1.00
23079;DHT22;11707;50.830;4.364;2023-04-27T01:31:18;7.10;1.00
23079;DHT22;11707;50.830;4.364;2023-04-27T01:33:46;7.20;1.00
23079;DHT22;11707;50.830;4.364;2023-04-27T01:36:12;7.20;1.00
23079;DHT22;11707;50.830;4.364;2023-04-27T01:38:37;7.20;1.00
23079;DHT22;11707;50.830;4.364;2023-04-27T01:41:06;7.40;1.00
23079;DHT22;11707;50.830;4.364;2023-04-27T01:43:34;7.20;1.00
23079;DHT22;11707;50.830;4.364;2023-04-27T01:46:09;6.90;1.00
23079;DHT22;11707;50.830;4.364;2023-04-27T01:48:39;6.80;1.00
23079;DHT22;11707;50.830;4.364;2023-04-27T01:51:05;6.80;1.00
23079;DHT22;11707;50.830;4.364;2023-04-27T01:53:30;6.80;1.00
23079;DHT22;11707;50.830;4.364;2023-04-27T01:55:59;6.70;1.00
23079;DHT22;11707;50.830;4.364;2023-04-27T01:58:27;6.80;1.00
23079;DHT22;11707;50.830;4.364;2023-04-27T02:00:53;6.80;1.00
23079;DHT22;11707;50.830;4.364;2023-04-27T02:03:19;6.70;1.00
23079;DHT22;11707;50.830;4.364;2023-04-27T02:05:45;6.80;1.00
23079;DHT22;11707;50.830;4.364;2023-04-27T02:08:12;6.70;1.00
23079;DHT22;11707;50.830;4.364;2023-04-27T02:10:37;6.70;1.00
23079;DHT22;11707;50.830;4.364;2023-04-27T02:13:06;6.70;1.00
23079;DHT22;11707;50.830;4.364;2023-04-27T02:15:32;6.70;1.00
23079;DHT22;11707;50.830;4.364;2023-04-27T02:18:00;6.70;1.00
23079;DHT22;11707;50.830;4.364;2023-04-27T02:20:28;6.50;1.00
23079;DHT22;11707;50.830;4.364;2023-04-27T02:22:54;6.50;1.00
23079;DHT22;11707;50.830;4.364;2023-04-27T02:25:19;6.50;1.00
23079;DHT22;11707;50.830;4.364;2023-04-27T02:27:45;6.60;1.00
23079;DHT22;11707;50.830;4.364;2023-04-27T02:30:14;6.60;1.00
23079;DHT22;11707;50.830;4.364;2023-04-27T02:32:40;6.50;1.00
23079;DHT22;11707;50.830;4.364;2023-04-27T02:35:07;6.60;1.00
23079;DHT22;11707;50.830;4.364;2023-04-27T02:37:33;6.60;1.00
23079;DHT22;11707;50.830;4.364;2023-04-27T02:39:59;6.60;1.00
23079;DHT22;11707;50.830;4.364;2023-04-27T02:42:25;6.60;1.00
23079;DHT22;11707;50.830;4.364;2023-04-27T02:44:52;6.50;1.00
23079;DHT22;11707;50.830;4.364;2023-04-27T02:47:18;6.50;1.00
23079;DHT22;11707;50.830;4.364;2023-04-27T02:49:44;6.50;1.00
23079;DHT22;11707;50.830;4.364;2023-04-27T02:52:12;6.40;1.00
23079;DHT22;11707;50.830;4.364;2023-04-27T02:54:40;6.30;1.00
23079;DHT22;11707;50.830;4.364;2023-04-27T02:57:08;6.30;2.90
23079;DHT22;11707;50.830;4.364;2023-04-27T02:59:34;6.30;7.30
23079;DHT22;11707;50.830;4.364;2023-04-27T03:02:00;6.30;6.30
23079;DHT22;11707;50.830;4.364;2023-04-27T03:04:26;6.30;6.60
23079;DHT22;11707;50.830;4.364;2023-04-27T03:06:52;6.30;6.20
23079;DHT22;11707;50.830;4.364;2023-04-27T03:09:18;6.30;8.50
23079;DHT22;11707;50.830;4.364;2023-04-27T03:11:43;6.20;8.30
23079;DHT22;11707;50.830;4.364;2023-04-27T03:14:09;6.10;14.00
23079;DHT22;11707;50.830;4.364;2023-04-27T03:16:37;6.10;17.80
23079;DHT22;11707;50.830;4.364;2023-04-27T03:19:02;6.20;14.50
23079;DHT22;11707;50.830;4.364;2023-04-27T03:21:28;6.20;16.10
23079;DHT22;11707;50.830;4.364;2023-04-27T03:23:54;6.20;14.10
23079;DHT22;11707;50.830;4.364;2023-04-27T03:26:22;6.20;16.40
23079;DHT22;11707;50.830;4.364;2023-04-27T03:28:50;6.00;20.40
23079;DHT22;11707;50.830;4.364;2023-04-27T03:31:16;6.20;19.70
23079;DHT22;11707;50.830;4.364;2023-04-27T03:33:44;6.00;18.80
23079;DHT22;11707;50.830;4.364;2023-04-27T03:36:10;6.00;26.30
23079;DHT22;11707;50.830;4.364;2023-04-27T03:38:38;6.00;24.90
23079;DHT22;11707;50.830;4.364;2023-04-27T03:41:04;6.10;28.50
23079;DHT22;11707;50.830;4.364;2023-04-27T03:43:29;6.00;19.40
23079;DHT22;11707;50.830;4.364;2023-04-27T03:45:55;5.90;30.00
23079;DHT22;11707;50.830;4.364;2023-04-27T03:48:21;6.00;27.10
23079;DHT22;11707;50.830;4.364;2023-04-27T03:50:47;6.10;24.50
23079;DHT22;11707;50.830;4.364;2023-04-27T03:53:14;6.10;21.80
23079;DHT22;11707;50.830;4.364;2023-04-27T03:55:40;6.20;20.60
23079;DHT22;11707;50.830;4.364;2023-04-27T03:58:07;6.00;23.50
23079;DHT22;11707;50.830;4.364;2023-04-27T04:00:37;5.80;32.10
23079;DHT22;11707;50.830;4.364;2023-04-27T04:03:05;6.00;29.70
23079;DHT22;11707;50.830;4.364;2023-04-27T04:05:32;5.80;29.30
23079;DHT22;11707;50.830;4.364;2023-04-27T04:08:00;5.70;32.80
23079;DHT22;11707;50.830;4.364;2023-04-27T04:10:26;5.60;41.00
23079;DHT22;11707;50.830;4.364;2023-04-27T04:12:52;5.50;47.30
23079;DHT22;11707;50.830;4.364;2023-04-27T04:15:17;5.60;42.70
23079;DHT22;11707;50.830;4.364;2023-04-27T04:17:44;5.60;44.30
23079;DHT22;11707;50.830;4.364;2023-04-27T04:20:11;5.60;46.40
23079;DHT22;11707;50.830;4.364;2023-04-27T04:22:38;5.60;48.10
23079;DHT22;11707;50.830;4.364;2023-04-27T04:25:04;5.70;46.40
23079;DHT22;11707;50.830;4.364;2023-04-27T04:27:30;5.60;42.90
23079;DHT22;11707;50.830;4.364;2023-04-27T04:29:56;5.60;45.90
23079;DHT22;11707;50.830;4.364;2023-04-27T04:32:25;5.60;46.40
23079;DHT22;11707;50.830;4.364;2023-04-27T04:34:55;5.50;46.50
23079;DHT22;11707;50.830;4.364;2023-04-27T04:37:22;5.60;48.70
23079;DHT22;11707;50.830;4.364;2023-04-27T04:39:49;5.70;43.60
23079;DHT22;11707;50.830;4.364;2023-04-27T04:42:15;5.80;35.50
23079;DHT22;11707;50.830;4.364;2023-04-27T04:44:41;5.80;33.10
23079;DHT22;11707;50.830;4.364;2023-04-27T04:47:07;5.80;29.30
23079;DHT22;11707;50.830;4.364;2023-04-27T04:49:34;5.80;26.70
23079;DHT22;11707;50.830;4.364;2023-04-27T04:52:02;5.80;29.40
23079;DHT22;11707;50.830;4.364;2023-04-27T04:54:29;5.80;23.80
23079;DHT22;11707;50.830;4.364;2023-04-27T04:56:54;5.70;27.70
23079;DHT22;11707;50.830;4.364;2023-04-27T04:59:20;5.80;30.30
23079;DHT22;11707;50.830;4.364;2023-04-27T05:01:51;5.90;24.40
23079;DHT22;11707;50.830;4.364;2023-04-27T05:04:20;5.80;23.60
23079;DHT22;11707;50.830;4.364;2023-04-27T05:06:46;5.70;25.40
23079;DHT22;11707;50.830;4.364;2023-04-27T05:09:11;5.80;26.00
23079;DHT22;11707;50.830;4.364;2023-04-27T05:11:37;5.80;24.90
23079;DHT22;11707;50.830;4.364;2023-04-27T05:14:03;5.80;25.00
23079;DHT22;11707;50.830;4.364;2023-04-27T05:16:28;5.90;25.50
23079;DHT22;11707;50.830;4.364;2023-04-27T05:18:54;5.90;19.90
23079;DHT22;11707;50.830;4.364;2023-04-27T05:21:20;5.80;18.50
23079;DHT22;11707;50.830;4.364;2023-04-27T05:23:48;5.90;18.90
23079;DHT22;11707;50.830;4.364;2023-04-27T05:26:16;5.90;20.00
23079;DHT22;11707;50.830;4.364;2023-04-27T05:28:42;6.00;17.50
23079;DHT22;11707;50.830;4.364;2023-04-27T05:31:11;6.10;15.90
23079;DHT22;11707;50.830;4.364;2023-04-27T05:33:39;6.00;19.90
23079;DHT22;11707;50.830;4.364;2023-04-27T05:36:08;6.00;17.90
23079;DHT22;11707;50.830;4.364;2023-04-27T05:38:34;6.10;19.40
23079;DHT22;11707;50.830;4.364;2023-04-27T05:41:01;6.00;19.70
23079;DHT22;11707;50.830;4.364;2023-04-27T05:43:27;6.10;16.60
23079;DHT22;11707;50.830;4.364;2023-04-27T05:45:53;6.20;18.40
23079;DHT22;11707;50.830;4.364;2023-04-27T05:48:23;6.20;19.10
23079;DHT22;11707;50.830;4.364;2023-04-27T05:51:01;6.40;10.40
23079;DHT22;11707;50.830;4.364;2023-04-27T05:53:28;6.40;3.70
23079;DHT22;11707;50.830;4.364;2023-04-27T05:55:55;6.40;1.00
23079;DHT22;11707;50.830;4.364;2023-04-27T05:58:24;6.30;6.50
23079;DHT22;11707;50.830;4.364;2023-04-27T06:00:53;6.40;9.40
23079;DHT22;11707;50.830;4.364;2023-04-27T06:03:21;6.50;3.50
23079;DHT22;11707;50.830;4.364;2023-04-27T06:05:52;6.60;1.00
23079;DHT22;11707;50.830;4.364;2023-04-27T06:08:17;6.70;1.00
23079;DHT22;11707;50.830;4.364;2023-04-27T06:10:43;6.70;1.00
23079;DHT22;11707;50.830;4.364;2023-04-27T06:13:09;6.80;1.00
23079;DHT22;11707;50.830;4.364;2023-04-27T06:15:35;6.90;1.00
23079;DHT22;11707;50.830;4.364;2023-04-27T06:18:00;7.10;1.00
23079;DHT22;11707;50.830;4.364;2023-04-27T06:20:26;7.20;1.00
23079;DHT22;11707;50.830;4.364;2023-04-27T06:22:56;7.50;1.00
23079;DHT22;11707;50.830;4.364;2023-04-27T06:25:22;7.60;1.00
23079;DHT22;11707;50.830;4.364;2023-04-27T06:27:48;7.70;1.00
23079;DHT22;11707;50.830;4.364;2023-04-27T06:30:13;7.60;1.00
23079;DHT22;11707;50.830;4.364;2023-04-27T06:32:39;7.60;1.00
23079;DHT22;11707;50.830;4.364;2023-04-27T06:35:05;7.80;1.00
23079;DHT22;11707;50.830;4.364;2023-04-27T06:37:30;8.00;1.00
23079;DHT22;11707;50.830;4.364;2023-04-27T06:39:56;8.10;1.00
23079;DHT22;11707;50.830;4.364;2023-04-27T06:42:24;8.20;1.00
23079;DHT22;11707;50.830;4.364;2023-04-27T06:44:54;8.20;1.00
23079;DHT22;11707;50.830;4.364;2023-04-27T06:47:23;8.20;99.90
23079;DHT22;11707;50.830;4.364;2023-04-27T06:49:48;8.00;1.00
23079;DHT22;11707;50.830;4.364;2023-04-27T06:52:14;8.00;1.00
23079;DHT22;11707;50.830;4.364;2023-04-27T06:54:40;8.00;1.00
23079;DHT22;11707;50.830;4.364;2023-04-27T06:57:06;8.20;1.00
23079;DHT22;11707;50.830;4.364;2023-04-27T06:59:34;8.40;99.90
23079;DHT22;11707;50.830;4.364;2023-04-27T07:01:59;8.30;99.90
23079;DHT22;11707;50.830;4.364;2023-04-27T07:04:25;8.20;99.90
23079;DHT22;11707;50.830;4.364;2023-04-27T07:06:51;8.30;99.90
23079;DHT22;11707;50.830;4.364;2023-04-27T07:09:17;8.60;99.90
23079;DHT22;11707;50.830;4.364;2023-04-27T07:11:43;8.90;99.90
23079;DHT22;11707;50.830;4.364;2023-04-27T07:14:08;8.80;99.90
23079;DHT22;11707;50.830;4.364;2023-04-27T07:16:34;8.90;99.90
23079;DHT22;11707;50.830;4.364;2023-04-27T07:19:00;9.00;99.90
23079;DHT22;11707;50.830;4.364;2023-04-27T07:21:26;9.20;99.90
23079;DHT22;11707;50.830;4.364;2023-04-27T07:23:53;9.20;99.90
23079;DHT22;11707;50.830;4.364;2023-04-27T07:26:19;9.20;99.90
23079;DHT22;11707;50.830;4.364;2023-04-27T07:28:45;9.20;99.90
23079;DHT22;11707;50.830;4.364;2023-04-27T07:31:15;9.10;99.90
23079;DHT22;11707;50.830;4.364;2023-04-27T07:33:41;9.00;99.90
23079;DHT22;11707;50.830;4.364;2023-04-27T07:36:07;9.00;99.90
23079;DHT22;11707;50.830;4.364;2023-04-27T07:38:33;9.20;99.90
23079;DHT22;11707;50.830;4.364;2023-04-27T07:41:02;9.40;99.90
23079;DHT22;11707;50.830;4.364;2023-04-27T07:43:32;9.40;4.10
23079;DHT22;11707;50.830;4.364;2023-04-27T07:46:00;9.40;20.10
23079;DHT22;11707;50.830;4.364;2023-04-27T07:48:28;9.60;1.00
23079;DHT22;11707;50.830;4.364;2023-04-27T07:51:00;9.60;1.00
23079;DHT22;11707;50.830;4.364;2023-04-27T07:53:26;9.80;1.00
23079;DHT22;11707;50.830;4.364;2023-04-27T07:55:52;9.80;99.90
23079;DHT22;11707;50.830;4.364;2023-04-27T07:58:17;9.90;99.90
23079;DHT22;11707;50.830;4.364;2023-04-27T08:00:44;10.00;99.90
23079;DHT22;11707;50.830;4.364;2023-04-27T08:03:10;9.90;99.90
23079;DHT22;11707;50.830;4.364;2023-04-27T08:05:36;9.90;99.90
23079;DHT22;11707;50.830;4.364;2023-04-27T08:08:05;10.10;99.90
23079;DHT22;11707;50.830;4.364;2023-04-27T08:10:30;10.20;1.00
23079;DHT22;11707;50.830;4.364;2023-04-27T08:12:56;10.30;1.00
23079;DHT22;11707;50.830;4.364;2023-04-27T08:15:22;10.30;1.00
23079;DHT22;11707;50.830;4.364;2023-04-27T08:17:48;10.40;1.00
23079;DHT22;11707;50.830;4.364;2023-04-27T08:20:13;10.30;99.90
23079;DHT22;11707;50.830;4.364;2023-04-27T08:22:40;10.10;99.90
23079;DHT22;11707;50.830;4.364;2023-04-27T08:25:07;10.20;99.90
23079;DHT22;11707;50.830;4.364;2023-04-27T08:27:35;10.30;4.10
23079;DHT22;11707;50.830;4.364;2023-04-27T08:30:01;10.40;15.90
23079;DHT22;11707;50.830;4.364;2023-04-27T08:32:29;10.60;1.00
23079;DHT22;11707;50.830;4.364;2023-04-27T08:34:54;10.80;1.00
23079;DHT22;11707;50.830;4.364;2023-04-27T08:37:20;10.90;99.90
23079;DHT22;11707;50.830;4.364;2023-04-27T08:39:47;10.70;99.90
23079;DHT22;11707;50.830;4.364;2023-04-27T08:42:13;10.80;1.00
23079;DHT22;11707;50.830;4.364;2023-04-27T08:44:40;10.80;99.90
23079;DHT22;11707;50.830;4.364;2023-04-27T08:47:06;11.10;99.90
23079;DHT22;11707;50.830;4.364;2023-04-27T08:49:33;11.20;99.90
23079;DHT22;11707;50.830;4.364;2023-04-27T08:52:03;11.10;99.90
23079;DHT22;11707;50.830;4.364;2023-04-27T08:54:29;10.90;99.90
23079;DHT22;11707;50.830;4.364;2023-04-27T08:56:55;11.00;99.90
23079;DHT22;11707;50.830;4.364;2023-04-27T08:59:23;11.10;99.90
23079;DHT22;11707;50.830;4.364;2023-04-27T09:01:49;11.00;99.90
23079;DHT22;11707;50.830;4.364;2023-04-27T09:04:17;11.00;1.00
23079;DHT22;11707;50.830;4.364;2023-04-27T09:06:44;10.90;99.90
23079;DHT22;11707;50.830;4.364;2023-04-27T09:09:23;11.10;99.90
23079;DHT22;11707;50.830;4.364;2023-04-27T09:11:49;11.20;1.00
23079;DHT22;11707;50.830;4.364;2023-04-27T09:14:20;11.40;1.00
23079;DHT22;11707;50.830;4.364;2023-04-27T09:16:53;11.60;1.00
23079;DHT22;11707;50.830;4.364;2023-04-27T09:19:26;11.90;99.90
23079;DHT22;11707;50.830;4.364;2023-04-27T09:22:08;12.10;44.70
23079;DHT22;11707;50.830;4.364;2023-04-27T09:24:36;11.80;1.00
23079;DHT22;11707;50.830;4.364;2023-04-27T09:27:02;11.70;33.00
23079;DHT22;11707;50.830;4.364;2023-04-27T09:29:38;11.60;99.90
23079;DHT22;11707;50.830;4.364;2023-04-27T09:32:17;11.30;1.00
23079;DHT22;11707;50.830;4.364;2023-04-27T09:34:43;11.20;99.90
23079;DHT22;11707;50.830;4.364;2023-04-27T09:37:10;11.20;1.00
23079;DHT22;11707;50.830;4.364;2023-04-27T09:39:36;11.40;99.90
23079;DHT22;11707;50.830;4.364;2023-04-27T09:42:02;11.50;99.90
23079;DHT22;11707;50.830;4.364;2023-04-27T09:44:31;11.40;99.90
23079;DHT22;11707;50.830;4.364;2023-04-27T09:46:58;11.60;99.90
23079;DHT22;11707;50.830;4.364;2023-04-27T09:49:26;11.50;99.90
23079;DHT22;11707;50.830;4.364;2023-04-27T09:51:53;11.40;99.90
23079;DHT22;11707;50.830;4.364;2023-04-27T09:54:24;11.70;99.90
23079;DHT22;11707;50.830;4.364;2023-04-27T10:02:14;12.30;99.90
23079;DHT22;11707;50.830;4.364;2023-04-27T10:05:15;12.30;99.90
23079;DHT22;11707;50.830;4.364;2023-04-27T10:07:46;12.30;99.90
23079;DHT22;11707;50.830;4.364;2023-04-27T10:10:19;12.10;99.90
23079;DHT22;11707;50.830;4.364;2023-04-27T10:12:55;12.00;99.90
23079;DHT22;11707;50.830;4.364;2023-04-27T10:15:27;12.20;1.00
23079;DHT22;11707;50.830;4.364;2023-04-27T10:17:54;12.40;1.00
23079;DHT22;11707;50.830;4.364;2023-04-27T10:20:35;12.80;99.90
23079;DHT22;11707;50.830;4.364;2023-04-27T10:23:01;12.80;99.90
23079;DHT22;11707;50.830;4.364;2023-04-27T10:25:40;12.80;99.90
23079;DHT22;11707;50.830;4.364;2023-04-27T10:28:06;12.60;99.90
23079;DHT22;11707;50.830;4.364;2023-04-27T10:30:36;12.70;99.90
23079;DHT22;11707;50.830;4.364;2023-04-27T10:33:09;12.80;99.90
23079;DHT22;11707;50.830;4.364;2023-04-27T10:35:37;12.70;53.70
23079;DHT22;11707;50.830;4.364;2023-04-27T10:38:09;12.90;6.90
23079;DHT22;11707;50.830;4.364;2023-04-27T10:40:36;12.70;32.50
23079;DHT22;11707;50.830;4.364;2023-04-27T10:43:13;12.70;1.00
23079;DHT22;11707;50.830;4.364;2023-04-27T10:45:42;12.90;1.00
23079;DHT22;11707;50.830;4.364;2023-04-27T10:48:10;12.60;1.00
23079;DHT22;11707;50.830;4.364;2023-04-27T10:50:37;12.70;1.00
23079;DHT22;11707;50.830;4.364;2023-04-27T10:53:04;12.80;99.90
23079;DHT22;11707;50.830;4.364;2023-04-27T10:55:30;13.10;99.90
23079;DHT22;11707;50.830;4.364;2023-04-27T10:57:56;13.10;99.90
23079;DHT22;11707;50.830;4.364;2023-04-27T11:02:53;13.20;99.90
23079;DHT22;11707;50.830;4.364;2023-04-27T11:05:21;13.20;99.90
23079;DHT22;11707;50.830;4.364;2023-04-27T11:07:48;13.20;99.90
23079;DHT22;11707;50.830;4.364;2023-04-27T11:10:17;12.90;99.90
23079;DHT22;11707;50.830;4.364;2023-04-27T11:12:44;13.10;99.90
23079;DHT22;11707;50.830;4.364;2023-04-27T11:15:10;13.30;99.90
23079;DHT22;11707;50.830;4.364;2023-04-27T11:17:37;13.60;99.90
23079;DHT22;11707;50.830;4.364;2023-04-27T11:20:03;13.60;99.90
23079;DHT22;11707;50.830;4.364;2023-04-27T11:22:34;13.60;99.90
23079;DHT22;11707;50.830;4.364;2023-04-27T11:25:00;13.70;99.90
23079;DHT22;11707;50.830;4.364;2023-04-27T11:27:38;13.70;99.90
23079;DHT22;11707;50.830;4.364;2023-04-27T11:30:05;13.60;99.90
23079;DHT22;11707;50.830;4.364;2023-04-27T11:32:32;13.50;99.90
23079;DHT22;11707;50.830;4.364;2023-04-27T11:34:58;13.40;99.90
23079;DHT22;11707;50.830;4.364;2023-04-27T11:37:25;13.30;99.90
23079;DHT22;11707;50.830;4.364;2023-04-27T11:39:52;13.50;99.90
23079;DHT22;11707;50.830;4.364;2023-04-27T11:42:28;13.40;99.90
23079;DHT22;11707;50.830;4.364;2023-04-27T11:44:55;13.60;99.90
23079;DHT22;11707;50.830;4.364;2023-04-27T11:47:26;13.60;99.90
23079;DHT22;11707;50.830;4.364;2023-04-27T11:50:00;13.80;99.90
23079;DHT22;11707;50.830;4.364;2023-04-27T11:52:37;13.90;99.90
23079;DHT22;11707;50.830;4.364;2023-04-27T11:55:07;13.80;99.90
23079;DHT22;11707;50.830;4.364;2023-04-27T11:57:35;13.90;81.50
23079;DHT22;11707;50.830;4.364;2023-04-27T12:00:05;13.70;90.50
23079;DHT22;11707;50.830;4.364;2023-04-27T12:02:35;13.70;98.00
23079;DHT22;11707;50.830;4.364;2023-04-27T12:05:02;13.90;95.20
23079;DHT22;11707;50.830;4.364;2023-04-27T12:07:28;13.80;99.90
23079;DHT22;11707;50.830;4.364;2023-04-27T12:09:56;13.90;99.90
23079;DHT22;11707;50.830;4.364;2023-04-27T12:12:24;14.00;91.90
23079;DHT22;11707;50.830;4.364;2023-04-27T12:14:50;13.70;70.80
23079;DHT22;11707;50.830;4.364;2023-04-27T12:17:16;13.70;99.90
23079;DHT22;11707;50.830;4.364;2023-04-27T12:19:42;13.80;77.80
23079;DHT22;11707;50.830;4.364;2023-04-27T12:22:08;13.60;67.30
23079;DHT22;11707;50.830;4.364;2023-04-27T12:24:34;13.60;85.00
23079;DHT22;11707;50.830;4.364;2023-04-27T12:27:01;13.60;74.30
23079;DHT22;11707;50.830;4.364;2023-04-27T12:29:28;13.50;46.40
23079;DHT22;11707;50.830;4.364;2023-04-27T12:31:54;13.70;20.30
23079;DHT22;11707;50.830;4.364;2023-04-27T12:34:20;13.70;2.20
23079;DHT22;11707;50.830;4.364;2023-04-27T12:36:46;13.70;10.40
23079;DHT22;11707;50.830;4.364;2023-04-27T12:39:19;13.80;1.00
23079;DHT22;11707;50.830;4.364;2023-04-27T12:41:46;14.00;1.00
23079;DHT22;11707;50.830;4.364;2023-04-27T12:44:15;14.30;1.00
23079;DHT22;11707;50.830;4.364;2023-04-27T12:46:44;14.30;1.00
23079;DHT22;11707;50.830;4.364;2023-04-27T12:49:10;14.30;1.00
23079;DHT22;11707;50.830;4.364;2023-04-27T12:51:39;14.40;2.00
23079;DHT22;11707;50.830;4.364;2023-04-27T12:54:07;15.20;1.00
23079;DHT22;11707;50.830;4.364;2023-04-27T12:56:33;16.40;1.00
23079;DHT22;11707;50.830;4.364;2023-04-27T12:58:58;17.40;1.00
23079;DHT22;11707;50.830;4.364;2023-04-27T13:01:27;18.30;99.90
23079;DHT22;11707;50.830;4.364;2023-04-27T13:03:58;18.70;99.90
23079;DHT22;11707;50.830;4.364;2023-04-27T13:06:27;18.70;99.90
23079;DHT22;11707;50.830;4.364;2023-04-27T13:08:55;19.00;99.90
23079;DHT22;11707;50.830;4.364;2023-04-27T13:11:22;19.40;99.90
23079;DHT22;11707;50.830;4.364;2023-04-27T13:13:48;19.30;99.90
23079;DHT22;11707;50.830;4.364;2023-04-27T13:16:13;19.70;99.90
23079;DHT22;11707;50.830;4.364;2023-04-27T13:18:41;20.30;99.90
23079;DHT22;11707;50.830;4.364;2023-04-27T13:21:12;21.00;99.90
23079;DHT22;11707;50.830;4.364;2023-04-27T13:23:39;21.30;99.90
23079;DHT22;11707;50.830;4.364;2023-04-27T13:26:05;21.20;99.90
23079;DHT22;11707;50.830;4.364;2023-04-27T13:28:31;20.60;99.90
23079;DHT22;11707;50.830;4.364;2023-04-27T13:30:57;19.30;99.90
23079;DHT22;11707;50.830;4.364;2023-04-27T13:33:25;19.60;99.90
23079;DHT22;11707;50.830;4.364;2023-04-27T13:35:50;19.70;99.90
23079;DHT22;11707;50.830;4.364;2023-04-27T13:38:16;20.10;99.90
23079;DHT22;11707;50.830;4.364;2023-04-27T13:40:42;20.20;99.90
23079;DHT22;11707;50.830;4.364;2023-04-27T13:43:08;18.60;99.90
23079;DHT22;11707;50.830;4.364;2023-04-27T13:45:35;19.00;99.90
23079;DHT22;11707;50.830;4.364;2023-04-27T13:48:01;19.00;99.90
23079;DHT22;11707;50.830;4.364;2023-04-27T13:50:27;19.10;99.90
23079;DHT22;11707;50.830;4.364;2023-04-27T13:52:52;20.20;99.90
23079;DHT22;11707;50.830;4.364;2023-04-27T13:55:19;22.10;99.90
23079;DHT22;11707;50.830;4.364;2023-04-27T13:57:45;21.90;99.90
23079;DHT22;11707;50.830;4.364;2023-04-27T14:00:11;21.90;99.90
23079;DHT22;11707;50.830;4.364;2023-04-27T14:02:37;21.70;99.90
23079;DHT22;11707;50.830;4.364;2023-04-27T14:05:06;19.70;99.90
23079;DHT22;11707;50.830;4.364;2023-04-27T14:07:31;18.80;99.90
23079;DHT22;11707;50.830;4.364;2023-04-27T14:10:01;19.30;99.90
23079;DHT22;11707;50.830;4.364;2023-04-27T14:12:31;19.30;99.90
23079;DHT22;11707;50.830;4.364;2023-04-27T14:14:57;19.70;99.90
23079;DHT22;11707;50.830;4.364;2023-04-27T14:17:23;18.90;99.90
23079;DHT22;11707;50.830;4.364;2023-04-27T14:19:48;19.10;99.90
23079;DHT22;11707;50.830;4.364;2023-04-27T14:22:14;19.40;99.90
23079;DHT22;11707;50.830;4.364;2023-04-27T14:24:40;20.30;99.90
23079;DHT22;11707;50.830;4.364;2023-04-27T14:27:05;20.90;99.90
23079;DHT22;11707;50.830;4.364;2023-04-27T14:29:33;21.20;99.90
23079;DHT22;11707;50.830;4.364;2023-04-27T14:31:59;20.90;99.90
23079;DHT22;11707;50.830;4.364;2023-04-27T14:34:25;20.60;99.90
23079;DHT22;11707;50.830;4.364;2023-04-27T14:36:51;20.10;99.90
23079;DHT22;11707;50.830;4.364;2023-04-27T14:39:16;20.10;99.90
23079;DHT22;11707;50.830;4.364;2023-04-27T14:41:42;21.00;99.90
23079;DHT22;11707;50.830;4.364;2023-04-27T14:44:08;21.90;99.90
23079;DHT22;11707;50.830;4.364;2023-04-27T14:46:34;21.70;99.90
23079;DHT22;11707;50.830;4.364;2023-04-27T14:49:02;22.30;99.90
23079;DHT22;11707;50.830;4.364;2023-04-27T14:51:27;21.70;99.90
23079;DHT22;11707;50.830;4.364;2023-04-27T14:53:54;21.10;99.90
23079;DHT22;11707;50.830;4.364;2023-04-27T14:56:20;19.60;99.90
23079;DHT22;11707;50.830;4.364;2023-04-27T14:58:47;19.40;99.90
23079;DHT22;11707;50.830;4.364;2023-04-27T15:01:13;18.80;99.90
23079;DHT22;11707;50.830;4.364;2023-04-27T15:03:38;18.30;99.90
23079;DHT22;11707;50.830;4.364;2023-04-27T15:06:04;18.50;99.90
23079;DHT22;11707;50.830;4.364;2023-04-27T15:08:30;18.40;99.90
23079;DHT22;11707;50.830;4.364;2023-04-27T15:10:56;17.50;99.90
23079;DHT22;11707;50.830;4.364;2023-04-27T15:13:27;17.20;99.90
23079;DHT22;11707;50.830;4.364;2023-04-27T15:15:57;16.90;99.90
23079;DHT22;11707;50.830;4.364;2023-04-27T15:18:25;16.70;99.90
23079;DHT22;11707;50.830;4.364;2023-04-27T15:20:54;16.00;99.90
23079;DHT22;11707;50.830;4.364;2023-04-27T15:23:21;16.00;99.90
23079;DHT22;11707;50.830;4.364;2023-04-27T15:25:47;15.90;99.90
23079;DHT22;11707;50.830;4.364;2023-04-27T15:28:14;16.10;99.90
23079;DHT22;11707;50.830;4.364;2023-04-27T15:30:40;15.80;99.90
23079;DHT22;11707;50.830;4.364;2023-04-27T15:33:06;16.00;99.90
23079;DHT22;11707;50.830;4.364;2023-04-27T15:35:32;16.10;99.90
23079;DHT22;11707;50.830;4.364;2023-04-27T15:37:57;16.20;99.90
23079;DHT22;11707;50.830;4.364;2023-04-27T15:40:23;16.20;99.90
23079;DHT22;11707;50.830;4.364;2023-04-27T15:42:49;16.10;99.90
23079;DHT22;11707;50.830;4.364;2023-04-27T15:45:15;15.70;99.90
23079;DHT22;11707;50.830;4.364;2023-04-27T15:47:40;15.60;99.90
23079;DHT22;11707;50.830;4.364;2023-04-27T15:50:06;15.70;99.90
23079;DHT22;11707;50.830;4.364;2023-04-27T15:52:32;16.10;99.90